Terminal Aerodrome Forecast
Issued by NWS

Home | Current Version | Previous Version | Text Only | Print | Product List | Glossary On
Versions: 1 2 3 4 5 6 7 8 9 10 11 12 13 14 15 16 17 18 19 20 21 22 23
000
FTUS42 KTAE 241300 AAB
TAFECP
TAF AMD
KECP 241302Z 2413/2512 00000KT 3SM BR SCT005 BKN070
      TEMPO 2413/2414 1/4SM FG OVC004
     FM241400 16005KT P6SM SCT025
     FM242000 22010KT P6SM SCT040
     FM250500 00000KT 5SM BR BKN005=

USA.gov is the U.S. government's official web portal to all federal, state and local government web resources and services.